Rhineland, Missouri
Current Conditions -  °F | °C
As of 2:15 PM on Sunday 25 Jan 2015 (Local Time) from KFYG Reporting Station
Light Rain Light Rain  
Wind Chill: 40°   Ceiling: 1600
Heat Index: 45°   Visibility: 4mi
Dew Point: 41°   Wind: 9mph
Humidity: 87%   Direction: 300°WNW
Pressure: 29.64"   Gusts: NA
Location:  38.72°N, 91.52°W
Report Text: KFYG 252015Z AUTO 30008KT 4SM -RA BKN016 07/05 A2964 RMK AO2
Loading
Personal Weather Stations






























Interactive Weather Map New forecast layout! Learn more

10-Day Weather Forecast

Advertisements
Track Severe Weather on mobile